Time;durP1;ratioP1;P1;durP2;ratioP2;P2;SDS_P1;SDS_P2;PMS_P1;PMS_P2;Temp;Humidity;BMP_temperature;BMP_pressure;BME280_temperature;BME280_humidity;BME280_pressure;Samples;Min_cycle;Max_cycle;Signal;HPM_P1;HPM_P2
2022/08/26 00:00:38;;;;;;;20.80;11.57;;;;;;;21.40;100.00;99521.56;5094014;28;20062;-78
2022/08/26 00:03:03;;;;;;;20.48;12.88;;;;;;;21.34;100.00;99515.03;5094043;28;20198;-79
2022/08/26 00:05:29;;;;;;;29.13;12.45;;;;;;;21.33;100.00;99516.03;5092266;28;20028;-78
2022/08/26 00:07:54;;;;;;;27.67;13.27;;;;;;;21.26;100.00;99508.75;5093812;28;20055;-78
2022/08/26 00:10:20;;;;;;;20.60;12.77;;;;;;;21.28;100.00;99512.09;5093851;28;20073;-78
2022/08/26 00:12:45;;;;;;;26.30;13.70;;;;;;;21.24;100.00;99511.56;5093230;28;20070;-78
2022/08/26 00:15:14;;;;;;;32.67;13.43;;;;;;;21.19;100.00;99495.25;5092085;28;20118;-77
2022/08/26 00:17:40;;;;;;;25.15;13.13;;;;;;;21.22;100.00;99508.22;5093436;28;20032;-78
2022/08/26 00:20:08;;;;;;;24.88;12.73;;;;;;;21.20;100.00;99506.69;5093659;28;20060;-78
2022/08/26 00:22:33;;;;;;;21.63;13.60;;;;;;;21.16;100.00;99500.84;5093195;28;20111;-78
2022/08/26 00:24:59;;;;;;;23.80;12.25;;;;;;;21.07;100.00;99489.28;5093408;28;20098;-78
2022/08/26 00:27:25;;;;;;;18.80;11.27;;;;;;;21.14;100.00;99500.97;5092106;28;20027;-78
2022/08/26 00:29:50;;;;;;;20.70;13.93;;;;;;;21.13;100.00;99496.66;5092872;28;20040;-78
2022/08/26 00:32:15;;;;;;;24.38;12.77;;;;;;;21.04;100.00;99486.09;5093262;28;20744;-78
2022/08/26 00:34:41;;;;;;;25.60;13.63;;;;;;;21.05;100.00;99501.81;5093114;28;20064;-78
2022/08/26 00:37:06;;;;;;;20.92;12.40;;;;;;;21.02;100.00;99499.47;5093431;28;20028;-78
2022/08/26 00:39:31;;;;;;;16.30;11.43;;;;;;;20.94;100.00;99494.03;5093242;28;20465;-78
2022/08/26 00:41:57;;;;;;;25.90;13.48;;;;;;;20.95;100.00;99501.03;5093014;28;20055;-78
2022/08/26 00:44:22;;;;;;;19.63;11.70;;;;;;;20.92;100.00;99503.94;5093291;28;20032;-78
2022/08/26 00:46:52;;;;;;;20.48;12.40;;;;;;;20.90;100.00;99504.09;5093018;28;20031;-78
2022/08/26 00:49:33;;;;;;;18.85;11.82;;;;;;;20.84;100.00;99496.69;5093101;28;20028;-78
2022/08/26 00:52:01;;;;;;;29.85;13.95;;;;;;;20.83;100.00;99500.31;5092801;28;20031;-78
2022/08/26 00:54:32;;;;;;;20.17;12.13;;;;;;;20.72;100.00;99489.03;5092774;28;20047;-78
2022/08/26 00:57:05;;;;;;;21.23;11.88;;;;;;;20.73;100.00;99498.66;5092867;28;20070;-78
2022/08/26 00:59:31;;;;;;;28.40;13.18;;;;;;;20.69;100.00;99500.75;5092855;28;20024;-77
2022/08/26 01:01:57;;;;;;;21.60;13.35;;;;;;;20.64;100.00;99495.03;5092743;28;20051;-78
2022/08/26 01:04:23;;;;;;;21.23;12.48;;;;;;;20.56;100.00;99484.31;5092862;28;20491;-78
2022/08/26 01:06:52;;;;;;;24.50;13.02;;;;;;;20.53;100.00;99488.09;5092593;28;20031;-78
2022/08/26 01:09:19;;;;;;;22.02;12.48;;;;;;;20.56;100.00;99493.09;5092510;28;20024;-78
2022/08/26 01:11:46;;;;;;;25.40;12.95;;;;;;;20.52;100.00;99494.34;5092191;28;20027;-78
2022/08/26 01:14:12;;;;;;;24.63;13.50;;;;;;;20.43;100.00;99489.84;5092635;28;20032;-78
2022/08/26 01:16:38;;;;;;;22.60;13.15;;;;;;;20.40;100.00;99490.97;5090053;28;20480;-78
2022/08/26 01:19:16;;;;;;;25.45;13.48;;;;;;;20.35;100.00;99484.41;5091132;28;20027;-78
2022/08/26 01:21:51;;;;;;;23.35;13.25;;;;;;;20.39;100.00;99491.94;5092153;28;20024;-78
2022/08/26 01:24:17;;;;;;;21.50;12.15;;;;;;;20.28;100.00;99481.50;5092097;28;20503;-78
2022/08/26 01:26:44;;;;;;;24.58;13.80;;;;;;;20.28;100.00;99486.78;5092458;28;20020;-78
2022/08/26 01:29:13;;;;;;;21.35;12.27;;;;;;;20.31;100.00;99488.28;5092288;28;20556;-78
2022/08/26 01:31:43;;;;;;;21.37;12.57;;;;;;;20.31;100.00;99490.94;5092066;28;20059;-78
2022/08/26 01:34:22;;;;;;;21.50;13.23;;;;;;;20.29;100.00;99492.91;5092436;28;20776;-78
2022/08/26 01:36:49;;;;;;;20.88;13.63;;;;;;;20.18;100.00;99477.97;5092709;28;20024;-78
2022/08/26 01:39:15;;;;;;;20.52;12.75;;;;;;;20.08;100.00;99467.41;5095127;28;20028;-78
2022/08/26 01:41:42;;;;;;;20.77;13.35;;;;;;;20.15;100.00;99489.69;5101447;28;20392;-78
2022/08/26 01:44:12;;;;;;;25.00;13.55;;;;;;;20.09;100.00;99484.91;5103911;28;20024;-78
2022/08/26 01:46:39;;;;;;;22.85;13.90;;;;;;;20.09;100.00;99484.09;5102887;28;20110;-78
2022/08/26 01:49:07;;;;;;;23.10;13.20;;;;;;;20.13;100.00;99485.50;5095193;28;20053;-78
2022/08/26 01:51:35;;;;;;;20.45;13.32;;;;;;;20.12;100.00;99481.19;5095595;28;20038;-78
2022/08/26 01:54:03;;;;;;;24.83;12.90;;;;;;;20.14;100.00;99489.78;5094346;28;20378;-78
2022/08/26 01:56:29;;;;;;;20.58;13.18;;;;;;;20.13;100.00;99488.97;5091019;28;20632;-78
2022/08/26 01:58:58;;;;;;;16.85;12.10;;;;;;;20.05;100.00;99485.34;5091748;28;20111;-78
2022/08/26 02:01:25;;;;;;;21.88;13.43;;;;;;;20.01;100.00;99482.13;5091792;28;20465;-78
2022/08/26 02:04:04;;;;;;;25.05;12.75;;;;;;;20.06;100.00;99495.78;5091394;28;20082;-78
2022/08/26 02:06:29;;;;;;;20.15;12.25;;;;;;;20.01;100.00;99497.97;5091855;28;20468;-78
2022/08/26 02:08:58;;;;;;;23.80;13.57;;;;;;;19.97;100.00;99488.66;5091587;28;20085;-78
2022/08/26 02:11:24;;;;;;;16.23;11.45;;;;;;;19.92;100.00;99493.50;5091762;28;20032;-78
2022/08/26 02:13:54;;;;;;;22.83;12.88;;;;;;;19.90;100.00;99493.66;5091462;28;20050;-78
2022/08/26 02:16:23;;;;;;;19.00;12.18;;;;;;;19.85;100.00;99484.47;5091562;28;20451;-78
2022/08/26 02:18:49;;;;;;;21.08;13.23;;;;;;;19.77;100.00;99479.84;5091853;28;20464;-78
2022/08/26 02:21:15;;;;;;;19.27;12.73;;;;;;;19.75;100.00;99481.78;5091704;28;20024;-78
2022/08/26 02:23:41;;;;;;;21.00;12.68;;;;;;;19.76;100.00;99483.44;5091513;28;20115;-78
2022/08/26 02:26:16;;;;;;;26.92;14.63;;;;;;;19.72;100.00;99474.13;5091532;28;20042;-78
2022/08/26 02:28:45;;;;;;;24.20;13.52;;;;;;;19.68;100.00;99470.09;5094947;28;20028;-78
2022/08/26 02:31:11;;;;;;;20.98;12.80;;;;;;;19.67;100.00;99476.31;5095656;28;20052;-78
2022/08/26 02:33:36;;;;;;;19.85;13.02;;;;;;;19.66;100.00;99485.22;5095202;28;20028;-78
2022/08/26 02:36:03;;;;;;;19.52;13.48;;;;;;;19.57;100.00;99470.16;5095294;28;20030;-78
2022/08/26 02:38:28;;;;;;;18.73;12.98;;;;;;;19.52;100.00;99469.72;5095381;28;20024;-78
2022/08/26 02:40:53;;;;;;;20.30;13.75;;;;;;;19.48;100.00;99471.78;5095186;28;20023;-78
2022/08/26 02:43:19;;;;;;;17.08;12.55;;;;;;;19.44;100.00;99470.38;5095112;28;20532;-78
2022/08/26 02:45:44;;;;;;;18.63;12.50;;;;;;;19.43;100.00;99472.19;5095224;28;20420;-78
2022/08/26 02:48:16;;;;;;;19.85;12.75;;;;;;;19.49;100.00;99480.53;5095368;28;20453;-78
2022/08/26 02:50:41;;;;;;;20.48;13.57;;;;;;;19.50;100.00;99476.91;5094842;28;20028;-78
2022/08/26 02:53:07;;;;;;;27.70;13.70;;;;;;;19.49;100.00;99483.19;5095006;28;20028;-78
2022/08/26 02:55:33;;;;;;;20.50;12.90;;;;;;;19.48;100.00;99479.69;5093600;28;20024;-78
2022/08/26 02:58:00;;;;;;;18.50;11.88;;;;;;;19.35;100.00;99464.06;5094652;28;20035;-78
2022/08/26 03:00:26;;;;;;;15.80;12.55;;;;;;;19.45;100.00;99472.03;5095032;28;20024;-78
2022/08/26 03:02:51;;;;;;;17.67;12.55;;;;;;;19.42;100.00;99477.56;5094796;28;20070;-78
2022/08/26 03:05:18;;;;;;;19.17;12.57;;;;;;;19.44;100.00;99478.28;5094898;28;20069;-78
2022/08/26 03:07:44;;;;;;;17.55;12.63;;;;;;;19.41;100.00;99476.75;5094766;28;20032;-78
2022/08/26 03:10:11;;;;;;;19.92;13.10;;;;;;;19.43;100.00;99473.97;5094746;28;20027;-78
2022/08/26 03:12:37;;;;;;;15.80;12.35;;;;;;;19.39;100.00;99465.50;5094799;28;20028;-78
2022/08/26 03:15:05;;;;;;;19.67;12.90;;;;;;;19.39;100.00;99472.56;5093197;28;20032;-78
2022/08/26 03:17:30;;;;;;;22.77;12.00;;;;;;;19.34;100.00;99461.53;5094819;28;20509;-78
2022/08/26 03:19:56;;;;;;;18.75;12.23;;;;;;;19.27;100.00;99449.84;5094511;28;20032;-78
2022/08/26 03:22:21;;;;;;;20.58;12.10;;;;;;;19.35;100.00;99468.53;5094351;28;20484;-78
2022/08/26 03:24:47;;;;;;;18.60;12.40;;;;;;;19.34;100.00;99462.41;5094305;28;20111;-79
2022/08/26 03:27:12;;;;;;;17.73;11.95;;;;;;;19.28;100.00;99460.28;5093040;28;20028;-79
2022/08/26 03:32:21;;;;;;;16.00;11.85;;;;;;;19.31;100.00;99461.84;5094483;28;20094;-79
2022/08/26 03:34:47;;;;;;;21.17;12.48;;;;;;;19.25;100.00;99452.63;5094042;28;20024;-78
2022/08/26 03:37:12;;;;;;;24.85;12.88;;;;;;;19.28;100.00;99457.63;5094482;28;20031;-79
2022/08/26 03:39:38;;;;;;;17.15;12.73;;;;;;;19.27;100.00;99457.78;5093115;28;20450;-78
2022/08/26 03:42:04;;;;;;;15.88;12.20;;;;;;;19.26;100.00;99461.41;5094016;28;20341;-78
2022/08/26 03:44:30;;;;;;;20.65;12.48;;;;;;;19.26;100.00;99466.69;5094299;28;20024;-78
2022/08/26 03:46:55;;;;;;;19.45;13.07;;;;;;;19.18;100.00;99449.69;5092747;28;20031;-78
2022/08/26 03:49:21;;;;;;;18.60;12.73;;;;;;;19.20;100.00;99458.28;5093952;28;20112;-78
2022/08/26 03:51:46;;;;;;;19.25;12.25;;;;;;;19.17;100.00;99455.06;5093993;28;20052;-78
2022/08/26 03:54:11;;;;;;;19.90;11.90;;;;;;;19.15;100.00;99449.94;5093847;28;20469;-78
2022/08/26 03:56:37;;;;;;;22.80;11.90;;;;;;;19.10;100.00;99448.66;5094019;28;20449;-78
2022/08/26 03:59:03;;;;;;;17.73;10.82;;;;;;;19.15;100.00;99455.22;5093669;28;20093;-78
2022/08/26 04:01:29;;;;;;;19.17;13.27;;;;;;;19.07;100.00;99441.81;5093929;28;20473;-78
2022/08/26 04:03:57;;;;;;;17.48;11.75;;;;;;;19.14;100.00;99455.34;5093491;28;20028;-78
2022/08/26 04:06:35;;;;;;;14.48;11.35;;;;;;;19.08;100.00;99440.03;5092375;28;20028;-78
2022/08/26 04:09:05;;;;;;;16.42;11.70;;;;;;;19.09;100.00;99447.00;5093324;28;20502;-78
2022/08/26 04:11:32;;;;;;;16.45;11.13;;;;;;;19.12;100.00;99452.00;5093734;28;20027;-78
2022/08/26 04:13:59;;;;;;;18.77;11.90;;;;;;;19.13;100.00;99451.03;5093351;28;20056;-78
2022/08/26 04:16:26;;;;;;;17.77;12.05;;;;;;;19.07;100.00;99441.81;5093513;28;20433;-78
2022/08/26 04:18:52;;;;;;;14.63;11.38;;;;;;;19.16;100.00;99448.13;5091868;28;20101;-78
2022/08/26 04:21:17;;;;;;;21.15;12.27;;;;;;;19.16;100.00;99450.75;5093229;28;20028;-78
2022/08/26 04:23:43;;;;;;;19.95;12.52;;;;;;;19.21;100.00;99451.19;5092184;28;20081;-78
2022/08/26 04:26:08;;;;;;;20.73;11.52;;;;;;;19.21;100.00;99443.28;5093146;28;20059;-78
2022/08/26 04:28:33;;;;;;;19.48;11.70;;;;;;;19.27;100.00;99452.50;5093252;28;20081;-78
2022/08/26 04:30:59;;;;;;;18.35;11.10;;;;;;;19.27;100.00;99441.94;5092901;28;20119;-78
2022/08/26 04:33:24;;;;;;;19.27;12.02;;;;;;;19.36;100.00;99455.19;5093195;28;20131;-78
2022/08/26 04:35:58;;;;;;;15.95;11.85;;;;;;;19.43;100.00;99453.69;5092297;28;20064;-78
2022/08/26 04:38:24;;;;;;;14.80;11.43;;;;;;;19.48;100.00;99448.00;5092866;28;20369;-78
2022/08/26 04:40:49;;;;;;;17.60;11.70;;;;;;;19.60;100.00;99456.69;5093031;28;20099;-78
2022/08/26 04:43:14;;;;;;;16.50;11.15;;;;;;;19.61;100.00;99440.72;5091713;28;20123;-78
2022/08/26 04:45:40;;;;;;;21.10;11.68;;;;;;;19.75;100.00;99447.41;5091779;28;20078;-78
2022/08/26 04:48:07;;;;;;;20.80;12.60;;;;;;;19.82;100.00;99445.09;5092939;28;20042;-78
2022/08/26 04:50:32;;;;;;;17.40;11.02;;;;;;;20.00;100.00;99455.84;5091470;28;20473;-79
2022/08/26 04:52:58;;;;;;;17.95;11.55;;;;;;;20.12;100.00;99445.00;5092929;28;20023;-78
2022/08/26 04:55:24;;;;;;;13.48;10.75;;;;;;;20.31;100.00;99454.78;5093255;28;20028;-78
2022/08/26 04:57:50;;;;;;;19.05;11.52;;;;;;;20.46;100.00;99447.25;5093009;28;20020;-78
2022/08/26 05:00:16;;;;;;;17.75;12.43;;;;;;;20.70;100.00;99456.59;5093221;28;20038;-79
2022/08/26 05:02:41;;;;;;;25.13;16.15;;;;;;;20.88;100.00;99450.44;5093030;28;20028;-78
2022/08/26 05:05:07;;;;;;;20.55;12.82;;;;;;;20.96;100.00;99444.44;5092460;28;20035;-78
2022/08/26 05:07:34;;;;;;;24.70;13.80;;;;;;;21.10;100.00;99440.50;5093020;28;20028;-78
2022/08/26 05:10:00;;;;;;;24.95;14.15;;;;;;;21.34;100.00;99455.94;5091334;28;20032;-78
2022/08/26 05:12:27;;;;;;;29.73;17.00;;;;;;;21.65;100.00;99465.25;5092717;28;20488;-78
2022/08/26 05:14:52;;;;;;;27.90;16.00;;;;;;;21.94;100.00;99453.69;5092493;28;20536;-78
2022/08/26 05:17:18;;;;;;;24.05;15.07;;;;;;;22.24;100.00;99452.53;5092631;28;20026;-78
2022/08/26 05:19:43;;;;;;;24.23;14.77;;;;;;;22.66;100.00;99463.34;5091151;28;20081;-78
2022/08/26 05:22:09;;;;;;;17.60;12.65;;;;;;;22.89;100.00;99454.91;5092450;28;20028;-79
2022/08/26 05:24:35;;;;;;;23.30;13.63;;;;;;;23.46;100.00;99459.75;5091240;28;20032;-78
2022/08/26 05:27:01;;;;;;;22.95;12.15;;;;;;;24.09;100.00;99464.69;5092429;28;20035;-78
2022/08/26 05:29:27;;;;;;;21.98;12.77;;;;;;;24.53;98.66;99469.78;5092106;28;20028;-79
2022/08/26 05:31:52;;;;;;;21.05;12.07;;;;;;;24.49;96.86;99444.50;5091872;28;20391;-79
2022/08/26 05:34:19;;;;;;;16.08;10.10;;;;;;;24.85;96.90;99469.78;5092034;28;20024;-79
2022/08/26 05:36:45;;;;;;;14.60;9.90;;;;;;;25.13;96.78;99462.28;5092264;28;20050;-78
2022/08/26 05:39:10;;;;;;;15.52;11.25;;;;;;;25.51;95.95;99462.50;5092017;28;20028;-79
2022/08/26 05:41:37;;;;;;;17.55;9.63;;;;;;;26.19;92.80;99462.88;5092004;28;20024;-78
2022/08/26 05:44:09;;;;;;;19.05;9.43;;;;;;;27.51;86.91;99464.25;5091832;28;20031;-78
2022/08/26 05:46:35;;;;;;;13.00;9.35;;;;;;;28.35;80.17;99467.34;5091978;28;20039;-78
2022/08/26 05:49:02;;;;;;;14.63;8.63;;;;;;;28.28;80.30;99461.09;5091854;28;20031;-79
2022/08/26 05:51:28;;;;;;;15.75;9.45;;;;;;;27.92;78.02;99458.44;5092268;28;20161;-78
2022/08/26 05:53:53;;;;;;;15.93;9.02;;;;;;;27.85;79.02;99469.91;5091900;28;20107;-79
2022/08/26 05:56:20;;;;;;;19.02;8.70;;;;;;;27.82;78.21;99467.59;5092444;28;20043;-79
2022/08/26 05:58:45;;;;;;;15.40;9.63;;;;;;;28.25;77.41;99462.31;5092144;28;20031;-78
2022/08/26 06:01:14;;;;;;;17.52;9.50;;;;;;;29.26;74.11;99471.03;5091884;28;20020;-79
2022/08/26 06:03:43;;;;;;;15.82;9.20;;;;;;;29.16;71.68;99457.16;5096090;28;20027;-78
2022/08/26 06:06:20;;;;;;;16.63;8.65;;;;;;;28.84;73.83;99461.22;5096227;28;20031;-79
2022/08/26 06:08:46;;;;;;;13.70;10.02;;;;;;;28.51;72.34;99466.28;5096343;28;20024;-78
2022/08/26 06:11:15;;;;;;;14.88;9.82;;;;;;;28.55;73.28;99465.72;5096110;28;20024;-78
2022/08/26 06:13:40;;;;;;;15.65;9.10;;;;;;;28.72;72.35;99466.28;5096011;28;20089;-78
2022/08/26 06:16:09;;;;;;;17.02;9.50;;;;;;;29.73;70.68;99461.41;5095962;28;20473;-78
2022/08/26 06:18:38;;;;;;;15.88;8.95;;;;;;;30.62;67.47;99462.28;5096404;28;20206;-78
2022/08/26 06:21:34;;;;;;;18.55;9.80;;;;;;;30.26;67.70;99458.13;5095795;28;20443;-78
2022/08/26 06:27:00;;;;;;;17.23;9.63;;;;;;;29.75;67.90;99462.06;5034787;28;20087;-78
2022/08/26 06:29:27;;;;;;;13.57;8.57;;;;;;;29.63;69.06;99450.22;5036366;28;20409;-78
2022/08/26 06:31:54;;;;;;;16.15;9.65;;;;;;;30.13;66.40;99458.88;5017501;28;20038;-78
2022/08/26 06:34:20;;;;;;;17.88;10.32;;;;;;;30.03;66.92;99451.19;5032705;28;20041;-78
2022/08/26 06:36:46;;;;;;;15.30;8.65;;;;;;;30.25;67.94;99451.88;5034259;28;20088;-78
2022/08/26 06:39:15;;;;;;;22.35;9.10;;;;;;;30.23;66.11;99455.81;5035442;28;20026;-78
2022/08/26 06:41:43;;;;;;;13.30;9.32;;;;;;;30.46;66.39;99458.13;5017630;28;20492;-78
2022/08/26 06:44:11;;;;;;;15.60;9.18;;;;;;;30.67;65.11;99465.16;5034667;28;20125;-78
2022/08/26 06:46:36;;;;;;;14.40;9.02;;;;;;;30.89;64.46;99452.38;5019848;28;20391;-77
2022/08/26 06:49:03;;;;;;;16.77;9.07;;;;;;;31.14;64.31;99452.56;5033736;28;20032;-77
2022/08/26 06:51:31;;;;;;;16.58;9.25;;;;;;;31.36;64.09;99447.81;5032723;28;20092;-77
2022/08/26 06:53:59;;;;;;;15.63;8.75;;;;;;;31.72;63.24;99449.94;5032729;28;20048;-77
2022/08/26 06:56:36;;;;;;;12.80;8.13;;;;;;;32.15;61.89;99455.56;5033136;28;20423;-77
2022/08/26 06:59:03;;;;;;;13.10;8.60;;;;;;;32.92;61.15;99448.19;5032817;28;20038;-76
2022/08/26 07:01:31;;;;;;;15.10;9.23;;;;;;;33.74;59.57;99446.06;5083789;28;20039;-77
2022/08/26 07:03:59;;;;;;;20.67;9.23;;;;;;;34.23;57.35;99452.31;5095789;28;20046;-77
2022/08/26 07:06:26;;;;;;;17.17;8.48;;;;;;;34.97;55.03;99450.09;5095677;28;20541;-77
2022/08/26 07:08:53;;;;;;;20.73;8.35;;;;;;;37.53;50.96;99441.22;5095378;28;20024;-77
2022/08/26 07:11:19;;;;;;;13.63;8.00;;;;;;;39.85;45.76;99430.81;5095366;28;20032;-77
2022/08/26 07:13:46;;;;;;;13.60;7.68;;;;;;;41.83;42.13;99448.91;5095279;28;20111;-77
2022/08/26 07:16:15;;;;;;;14.20;8.77;;;;;;;43.61;40.05;99447.63;5095337;28;20024;-77
2022/08/26 07:18:41;;;;;;;15.68;7.88;;;;;;;44.75;37.12;99440.97;5095611;28;20028;-77
2022/08/26 07:21:09;;;;;;;11.00;8.18;;;;;;;46.19;35.85;99448.75;5094871;28;20039;-77
2022/08/26 07:23:36;;;;;;;15.85;7.88;;;;;;;47.45;33.23;99442.09;5095301;28;20054;-77
2022/08/26 07:26:15;;;;;;;16.27;7.95;;;;;;;47.74;32.06;99439.59;5095144;28;20034;-77
2022/08/26 07:28:40;;;;;;;11.93;6.65;;;;;;;48.56;32.26;99448.03;5094807;28;20024;-76
2022/08/26 07:31:08;;;;;;;12.60;7.35;;;;;;;49.15;30.78;99436.28;5094685;28;20503;-77
2022/08/26 07:33:35;;;;;;;13.82;7.82;;;;;;;48.76;31.22;99435.47;5095018;28;20024;-76
2022/08/26 07:36:00;;;;;;;18.77;7.07;;;;;;;49.75;30.63;99442.59;5094311;28;20337;-77
2022/08/26 07:38:26;;;;;;;17.33;7.60;;;;;;;49.75;29.62;99424.03;5094523;28;20099;-77
2022/08/26 07:40:52;;;;;;;18.45;7.88;;;;;;;49.92;29.08;99431.41;5094726;28;20105;-77
2022/08/26 07:43:17;;;;;;;15.60;7.10;;;;;;;50.08;29.17;99432.41;5094931;28;20055;-78
2022/08/26 07:45:43;;;;;;;17.88;7.93;;;;;;;50.01;28.99;99429.38;5094431;28;20028;-78
2022/08/26 07:48:09;;;;;;;12.25;6.75;;;;;;;49.68;29.27;99415.44;5095147;28;20028;-77
2022/08/26 07:50:34;;;;;;;11.00;6.53;;;;;;;49.13;29.17;99422.78;5096662;28;20093;-78
2022/08/26 07:53:01;;;;;;;12.23;7.43;;;;;;;49.55;27.99;99430.38;5096277;28;20031;-78
2022/08/26 07:55:27;;;;;;;16.80;6.88;;;;;;;49.66;27.59;99429.63;5095379;28;20031;-77
2022/08/26 07:57:52;;;;;;;11.45;6.47;;;;;;;49.88;27.76;99427.69;5098148;28;20043;-77
2022/08/26 08:00:18;;;;;;;12.68;7.25;;;;;;;48.88;28.67;99415.41;5094997;28;20027;-77
2022/08/26 08:02:43;;;;;;;13.57;7.15;;;;;;;48.67;28.60;99418.06;5097003;28;20024;-77
2022/08/26 08:05:11;;;;;;;20.05;6.70;;;;;;;48.62;29.13;99426.53;5094807;28;20128;-77
2022/08/26 08:07:37;;;;;;;14.20;7.53;;;;;;;47.39;30.53;99419.38;5096704;28;20069;-78
2022/08/26 08:10:03;;;;;;;12.73;6.95;;;;;;;47.37;30.23;99424.44;5095833;28;20054;-77
2022/08/26 08:12:28;;;;;;;17.60;6.90;;;;;;;48.07;29.74;99427.28;5094065;28;20483;-76
2022/08/26 08:14:54;;;;;;;13.32;6.60;;;;;;;47.66;29.17;99414.72;5094232;28;20058;-76
2022/08/26 08:17:19;;;;;;;16.95;6.95;;;;;;;44.48;31.71;99408.75;5093607;28;20469;-77
2022/08/26 08:19:45;;;;;;;16.35;7.90;;;;;;;39.72;37.56;99401.34;5093829;28;20066;-76
2022/08/26 08:22:10;;;;;;;13.95;8.50;;;;;;;37.40;41.05;99410.63;5093280;28;20477;-76
2022/08/26 08:24:36;;;;;;;18.25;8.48;;;;;;;35.78;45.41;99409.59;5093165;28;20032;-76
2022/08/26 08:27:02;;;;;;;16.77;7.53;;;;;;;34.04;47.72;99399.34;5092880;28;20085;-77
2022/08/26 08:29:28;;;;;;;15.75;8.55;;;;;;;33.33;50.56;99406.22;5092992;28;20039;-78
2022/08/26 08:31:58;;;;;;;13.77;8.85;;;;;;;32.70;52.16;99406.44;5072927;28;20424;-78
2022/08/26 08:34:25;;;;;;;13.68;8.70;;;;;;;31.83;53.28;99402.66;5080576;28;20062;-78
2022/08/26 08:36:51;;;;;;;17.05;7.95;;;;;;;31.26;54.87;99392.50;5092953;28;20032;-78
2022/08/26 08:39:17;;;;;;;17.02;8.65;;;;;;;31.00;56.26;99395.28;5092833;28;20031;-77
2022/08/26 08:41:54;;;;;;;12.35;7.60;;;;;;;30.63;54.59;99394.03;5092752;28;20361;-77
2022/08/26 08:44:24;;;;;;;16.27;7.53;;;;;;;30.69;55.08;99393.22;5092908;28;20016;-77
2022/08/26 08:47:02;;;;;;;17.48;7.50;;;;;;;30.48;56.11;99376.28;5093094;28;20114;-76
2022/08/26 08:49:30;;;;;;;17.23;7.82;;;;;;;29.97;56.56;99386.75;5092344;28;20052;-77
2022/08/26 08:52:03;;;;;;;14.88;8.27;;;;;;;29.66;56.49;99390.75;5092745;28;20063;-77
2022/08/26 08:54:32;;;;;;;15.85;8.32;;;;;;;29.68;57.13;99393.25;5092362;28;20027;-76
2022/08/26 08:57:10;;;;;;;16.30;7.27;;;;;;;29.57;57.66;99386.59;5099016;28;20387;-76
2022/08/26 09:00:07;;;;;;;14.13;7.65;;;;;;;29.62;57.62;99384.13;5095201;28;20032;-78
2022/08/26 09:02:46;;;;;;;18.02;7.15;;;;;;;29.38;58.83;99395.38;5033740;28;20120;-76
2022/08/26 09:05:39;;;;;;;11.27;6.95;;;;;;;29.29;55.63;99392.03;5038568;28;20072;-76
2022/08/26 09:08:09;;;;;;;14.35;7.03;;;;;;;29.37;56.26;99386.50;5015239;28;20040;-77
2022/08/26 09:10:35;;;;;;;12.05;6.07;;;;;;;29.44;55.82;99390.03;5016215;28;20458;-77
2022/08/26 09:13:05;;;;;;;15.23;6.95;;;;;;;29.53;55.33;99390.69;5014245;28;20128;-77
2022/08/26 09:15:35;;;;;;;;;;;;;;;29.27;55.83;99386.03;5032454;28;20034;-79
2022/08/26 09:18:15;;;;;;;22.95;7.22;;;;;;;29.27;56.38;99384.19;5030954;28;19963;-77
2022/08/26 09:21:12;;;;;;;16.15;7.57;;;;;;;29.30;57.03;99380.28;5030133;28;20431;-77
2022/08/26 09:23:40;;;;;;;15.52;7.97;;;;;;;29.27;57.28;99376.13;4971095;28;20042;-76
2022/08/26 09:26:27;;;;;;;13.20;7.43;;;;;;;29.13;57.65;99378.97;4971180;28;20515;-76
2022/08/26 09:28:57;;;;;;;15.07;6.82;;;;;;;29.24;57.92;99379.19;4971084;28;20119;-76
2022/08/26 09:31:32;;;;;;;13.93;6.72;;;;;;;29.43;58.41;99374.97;4970749;28;20047;-76
2022/08/26 09:34:18;;;;;;;11.02;6.28;;;;;;;29.43;55.44;99383.03;4970971;28;20097;-77
2022/08/26 09:36:45;;;;;;;17.45;7.20;;;;;;;29.27;55.50;99386.84;4893945;29;20379;-78
2022/08/26 09:39:22;;;;;;;12.93;6.72;;;;;;;29.29;56.44;99378.63;4914633;29;20043;-77
2022/08/26 09:42:11;;;;;;;10.02;6.50;;;;;;;29.36;56.58;99378.66;4952073;29;20043;-77
2022/08/26 09:44:57;;;;;;;16.73;6.13;;;;;;;29.50;57.95;99377.69;4935462;29;20035;-77
2022/08/26 09:47:30;;;;;;;13.07;6.63;;;;;;;29.60;56.25;99366.59;4951182;29;20043;-77
2022/08/26 09:50:03;;;;;;;15.85;7.00;;;;;;;29.61;56.89;99381.66;4951532;29;20151;-78
2022/08/26 09:52:29;;;;;;;9.43;5.22;;;;;;;29.50;52.86;99375.84;4951178;29;20080;-78
2022/08/26 09:55:03;;;;;;;11.10;5.90;;;;;;;29.55;54.31;99375.22;4951529;29;20392;-78
2022/08/26 09:57:33;;;;;;;13.82;6.20;;;;;;;29.49;55.40;99355.38;4951347;29;20459;-78
2022/08/26 10:00:00;;;;;;;12.55;6.82;;;;;;;29.45;56.09;99364.84;4980031;28;20100;-78
2022/08/26 10:02:31;;;;;;;9.25;5.38;;;;;;;29.44;55.55;99357.84;5009548;28;20061;-78
2022/08/26 10:04:58;;;;;;;15.95;5.88;;;;;;;29.39;54.08;99352.25;5009753;28;20030;-78
2022/08/26 10:07:35;;;;;;;10.40;6.57;;;;;;;29.52;54.99;99357.66;5009521;28;20042;-77
2022/08/26 10:10:03;;;;;;;11.02;6.03;;;;;;;29.51;54.93;99347.13;5009800;28;20025;-78
2022/08/26 10:12:32;;;;;;;11.63;6.43;;;;;;;29.54;54.86;99350.25;5009424;28;20545;-77
2022/08/26 10:15:02;;;;;;;11.10;5.30;;;;;;;29.62;55.04;99351.94;5088974;28;20035;-78
2022/08/26 10:17:34;;;;;;;13.68;6.85;;;;;;;29.49;54.44;99347.31;5091378;28;20024;-78
2022/08/26 10:20:09;;;;;;;14.02;6.78;;;;;;;29.31;54.84;99345.19;5092232;28;20020;-78
2022/08/26 10:22:54;;;;;;;13.13;6.50;;;;;;;29.30;55.07;99342.72;5091597;28;20047;-78
2022/08/26 10:25:25;;;;;;;13.63;6.72;;;;;;;29.26;54.23;99328.88;5091899;28;20366;-78
2022/08/26 10:27:59;;;;;;;11.43;6.43;;;;;;;29.35;53.74;99337.59;5091715;28;20028;-78
2022/08/26 10:30:32;;;;;;;14.98;7.05;;;;;;;29.39;53.37;99346.06;5091292;28;20052;-78
2022/08/26 10:33:03;;;;;;;11.43;6.50;;;;;;;29.32;54.43;99343.34;5091642;28;20100;-78
2022/08/26 10:35:30;;;;;;;13.90;6.22;;;;;;;29.38;52.94;99331.81;5091673;28;20042;-78
2022/08/26 10:38:06;;;;;;;14.43;6.25;;;;;;;29.37;53.18;99324.81;5091763;28;20028;-78
2022/08/26 10:40:51;;;;;;;17.20;7.13;;;;;;;29.50;52.97;99334.75;5091335;28;20036;-78
2022/08/26 10:43:22;;;;;;;17.30;6.65;;;;;;;29.54;54.48;99327.97;5091156;28;20051;-78
2022/08/26 10:45:53;;;;;;;17.75;6.47;;;;;;;29.52;53.87;99332.69;5091437;28;20024;-78
2022/08/26 10:48:41;;;;;;;12.93;5.85;;;;;;;29.53;52.75;99327.09;5092757;28;20020;-78
2022/08/26 10:51:10;;;;;;;13.23;6.20;;;;;;;29.56;51.46;99329.44;5095499;28;20092;-78
2022/08/26 10:53:57;;;;;;;22.98;6.80;;;;;;;29.50;53.33;99335.59;5095126;28;20538;-78
2022/08/26 10:56:43;;;;;;;12.07;5.90;;;;;;;29.69;53.60;99325.94;5095052;28;20028;-78
2022/08/26 10:59:20;;;;;;;11.57;5.82;;;;;;;29.85;51.93;99330.13;5095050;28;20032;-78
2022/08/26 11:01:53;;;;;;;9.25;5.65;;;;;;;29.90;51.62;99330.31;5095400;28;20078;-78
2022/08/26 11:04:41;;;;;;;9.68;5.15;;;;;;;29.78;51.88;99326.59;5095144;28;20039;-78
2022/08/26 11:07:29;;;;;;;12.60;6.30;;;;;;;29.57;51.70;99317.66;5095177;28;20485;-78
2022/08/26 11:09:56;;;;;;;13.10;5.70;;;;;;;29.55;52.04;99310.81;5095140;28;20371;-78
2022/08/26 11:12:34;;;;;;;14.07;5.60;;;;;;;29.62;51.74;99325.09;5094864;28;20024;-78
2022/08/26 11:15:04;;;;;;;9.68;5.22;;;;;;;29.57;50.19;99320.34;5094571;28;20031;-78
2022/08/26 11:17:45;;;;;;;9.27;5.30;;;;;;;29.58;51.05;99318.47;5095052;28;20035;-78
2022/08/26 11:20:32;;;;;;;9.02;5.68;;;;;;;29.54;50.98;99307.31;5093612;28;20032;-78
2022/08/26 11:23:21;;;;;;;14.85;6.20;;;;;;;29.60;50.82;99316.44;5090586;28;20039;-78
2022/08/26 11:25:55;;;;;;;10.48;5.25;;;;;;;29.53;51.68;99302.97;5094769;28;20032;-78
2022/08/26 11:28:48;;;;;;;10.07;5.10;;;;;;;29.62;51.74;99298.25;5094471;28;20028;-78
2022/08/26 11:31:23;;;;;;;13.77;6.15;;;;;;;29.65;50.40;99305.09;5031777;28;20057;-78